Time;durP1;ratioP1;P1;durP2;ratioP2;P2;SDS_P1;SDS_P2;PMS_P1;PMS_P2;Temp;Humidity;BMP_temperature;BMP_pressure;BME280_temperature;BME280_humidity;BME280_pressure;Samples;Min_cycle;Max_cycle;Signal;HPM_P1;HPM_P2
2023/06/20 00:00:29;;;;;;;8.13;7.53;;;;;;;;;;5012057;28;20045;-82
2023/06/20 00:02:55;;;;;;;8.60;7.95;;;;;;;;;;4996277;28;20132;-82
2023/06/20 00:05:22;;;;;;;9.07;8.13;;;;;;;;;;4996216;28;20072;-82
2023/06/20 00:07:48;;;;;;;9.45;8.65;;;;;;;;;;5012287;28;20117;-82
2023/06/20 00:10:14;;;;;;;8.60;7.78;;;;;;;;;;5011988;28;20049;-83
2023/06/20 00:12:40;;;;;;;8.15;7.65;;;;;;;;;;5013376;28;20057;-83
2023/06/20 00:15:07;;;;;;;9.48;8.65;;;;;;;;;;5012527;28;20136;-83
2023/06/20 00:17:33;;;;;;;9.07;8.20;;;;;;;;;;5012231;28;20129;-82
2023/06/20 00:19:59;;;;;;;8.90;8.30;;;;;;;;;;5012434;28;20052;-82
2023/06/20 00:22:25;;;;;;;8.75;8.15;;;;;;;;;;5013081;28;20081;-82
2023/06/20 00:24:51;;;;;;;8.98;8.20;;;;;;;;;;4996079;28;20478;-83
2023/06/20 00:27:17;;;;;;;9.45;8.75;;;;;;;;;;5012410;28;20129;-82
2023/06/20 00:29:43;;;;;;;10.80;9.50;;;;;;;;;;4979867;28;20050;-82
2023/06/20 00:32:09;;;;;;;8.23;7.55;;;;;;;;;;4979702;28;20116;-82
2023/06/20 00:34:35;;;;;;;9.02;8.13;;;;;;;;;;4995842;28;20136;-82
2023/06/20 00:37:02;;;;;;;9.75;8.88;;;;;;;;;;4996129;28;20045;-82
2023/06/20 00:39:28;;;;;;;9.13;8.43;;;;;;;;;;5011818;28;20367;-83
2023/06/20 00:41:54;;;;;;;8.43;7.80;;;;;;;;;;5011590;28;20042;-83
2023/06/20 00:44:21;;;;;;;9.07;8.38;;;;;;;;;;5011967;28;20053;-83
2023/06/20 00:46:47;;;;;;;9.80;9.05;;;;;;;;;;5011994;28;20076;-83
2023/06/20 00:49:13;;;;;;;9.07;8.27;;;;;;;;;;5011938;28;20439;-82
2023/06/20 00:51:39;;;;;;;9.77;8.85;;;;;;;;;;5016488;28;20534;-83
2023/06/20 00:54:05;;;;;;;9.25;8.45;;;;;;;;;;4999444;28;20049;-83
2023/06/20 00:56:32;;;;;;;9.82;9.00;;;;;;;;;;5015674;28;20096;-82
2023/06/20 00:58:58;;;;;;;9.18;8.52;;;;;;;;;;4983058;28;20077;-82
2023/06/20 01:01:25;;;;;;;8.90;8.20;;;;;;;;;;5015486;28;20054;-82
2023/06/20 01:03:52;;;;;;;9.10;8.38;;;;;;;;;;5015384;28;20058;-82
2023/06/20 01:06:42;;;;;;;9.88;9.07;;;;;;;;;;5015660;28;20108;-82
2023/06/20 01:09:11;;;;;;;10.00;9.00;;;;;;;;;;5003120;28;20093;-82
2023/06/20 01:11:50;;;;;;;10.05;9.15;;;;;;;;;;5014605;28;20050;-82
2023/06/20 01:14:30;;;;;;;11.07;10.02;;;;;;;;;;5016508;28;20096;-82
2023/06/20 01:16:59;;;;;;;9.20;8.50;;;;;;;;;;5015179;28;20057;-82
2023/06/20 01:19:34;;;;;;;12.73;9.80;;;;;;;;;;5015868;28;20108;-83
2023/06/20 01:22:03;;;;;;;11.15;10.25;;;;;;;;;;5015173;28;20128;-83
2023/06/20 01:24:44;;;;;;;11.45;10.52;;;;;;;;;;5015117;28;20089;-82
2023/06/20 01:27:19;;;;;;;10.68;9.68;;;;;;;;;;5014737;28;20046;-82
2023/06/20 01:29:48;;;;;;;10.98;10.13;;;;;;;;;;5015190;28;20052;-82
2023/06/20 01:32:17;;;;;;;12.32;11.23;;;;;;;;;;5014056;28;20479;-82
2023/06/20 01:34:54;;;;;;;12.23;11.20;;;;;;;;;;5014527;28;20089;-83
2023/06/20 01:37:21;;;;;;;11.63;10.48;;;;;;;;;;4998519;28;20128;-82
2023/06/20 01:39:50;;;;;;;14.13;11.00;;;;;;;;;;5014571;28;20100;-82
2023/06/20 01:42:16;;;;;;;10.77;9.88;;;;;;;;;;4998079;28;20081;-82
2023/06/20 01:44:43;;;;;;;11.38;10.48;;;;;;;;;;5015699;28;20085;-82
2023/06/20 01:47:11;;;;;;;10.35;9.73;;;;;;;;;;5014534;28;20046;-82
2023/06/20 01:49:39;;;;;;;11.00;10.00;;;;;;;;;;4998312;28;20042;-81
2023/06/20 01:52:05;;;;;;;11.95;10.98;;;;;;;;;;5015516;28;20092;-82
2023/06/20 01:54:34;;;;;;;11.68;10.68;;;;;;;;;;5014351;28;20200;-81
2023/06/20 01:57:01;;;;;;;11.10;10.25;;;;;;;;;;5014529;28;20110;-81
2023/06/20 01:59:28;;;;;;;12.80;11.60;;;;;;;;;;4997577;28;20054;-81
2023/06/20 02:01:55;;;;;;;11.77;10.68;;;;;;;;;;5015002;28;20111;-82
2023/06/20 02:04:23;;;;;;;11.43;10.45;;;;;;;;;;5014551;28;20414;-82
2023/06/20 02:06:50;;;;;;;12.20;11.20;;;;;;;;;;5014106;28;20056;-83
2023/06/20 02:09:16;;;;;;;12.90;11.70;;;;;;;;;;5015055;28;20045;-82
2023/06/20 02:11:43;;;;;;;12.68;11.57;;;;;;;;;;5013640;28;20084;-81
2023/06/20 02:14:09;;;;;;;12.30;11.10;;;;;;;;;;5013878;28;20053;-81
2023/06/20 02:16:36;;;;;;;12.93;11.93;;;;;;;;;;5014175;28;20148;-81
2023/06/20 02:19:07;;;;;;;14.13;12.70;;;;;;;;;;5013822;28;20108;-81
2023/06/20 02:21:36;;;;;;;13.88;12.82;;;;;;;;;;5015096;28;20081;-81
2023/06/20 02:24:03;;;;;;;15.48;12.23;;;;;;;;;;5013519;28;20046;-81
2023/06/20 02:26:34;;;;;;;15.30;13.88;;;;;;;;;;4997162;28;20058;-82
2023/06/20 02:29:03;;;;;;;13.65;12.55;;;;;;;;;;5014855;28;20048;-81
2023/06/20 02:31:32;;;;;;;16.13;14.82;;;;;;;;;;5014494;28;20502;-81
2023/06/20 02:33:59;;;;;;;14.77;13.68;;;;;;;;;;5014864;28;20054;-82
2023/06/20 02:36:26;;;;;;;13.60;12.48;;;;;;;;;;4997910;28;20053;-81
2023/06/20 02:38:53;;;;;;;16.02;14.63;;;;;;;;;;4997130;28;20041;-82
2023/06/20 02:41:20;;;;;;;14.57;13.05;;;;;;;;;;5013383;28;20137;-82
2023/06/20 02:43:47;;;;;;;15.32;13.80;;;;;;;;;;5014431;28;20057;-81
2023/06/20 02:46:13;;;;;;;15.32;14.07;;;;;;;;;;5013427;28;20052;-81
2023/06/20 02:48:59;;;;;;;14.88;13.60;;;;;;;;;;5013553;28;20141;-81
2023/06/20 02:51:31;;;;;;;16.73;15.32;;;;;;;;;;4958252;28;20540;-81
2023/06/20 02:54:04;;;;;;;16.33;15.05;;;;;;;;;;5013260;28;20449;-81
2023/06/20 02:56:32;;;;;;;15.48;14.35;;;;;;;;;;5013288;28;20421;-81
2023/06/20 02:59:02;;;;;;;17.08;15.65;;;;;;;;;;5013137;28;20104;-81
2023/06/20 03:01:29;;;;;;;16.02;14.73;;;;;;;;;;4998928;28;20050;-81
2023/06/20 03:03:56;;;;;;;17.05;15.45;;;;;;;;;;4992642;28;20042;-81
2023/06/20 03:06:27;;;;;;;15.13;13.82;;;;;;;;;;4977146;28;20435;-81
2023/06/20 03:08:54;;;;;;;16.30;14.82;;;;;;;;;;4977419;28;20522;-81
2023/06/20 03:11:21;;;;;;;16.67;15.13;;;;;;;;;;4992986;28;20157;-81
2023/06/20 03:13:47;;;;;;;17.30;15.82;;;;;;;;;;4992680;28;20069;-81
2023/06/20 03:16:13;;;;;;;16.08;14.65;;;;;;;;;;4993730;28;20514;-81
2023/06/20 03:18:40;;;;;;;16.10;14.75;;;;;;;;;;4977196;28;20384;-81
2023/06/20 03:21:06;;;;;;;16.30;14.65;;;;;;;;;;4978049;28;20050;-81
2023/06/20 03:23:32;;;;;;;16.23;14.75;;;;;;;;;;4977238;28;20050;-81
2023/06/20 03:25:59;;;;;;;16.70;15.20;;;;;;;;;;4993240;28;20065;-81
2023/06/20 03:28:26;;;;;;;16.90;15.50;;;;;;;;;;4993269;28;20058;-80
2023/06/20 03:30:52;;;;;;;16.73;15.13;;;;;;;;;;4992843;28;20501;-81
2023/06/20 03:33:18;;;;;;;17.67;16.10;;;;;;;;;;4994518;28;20050;-82
2023/06/20 03:35:44;;;;;;;17.02;15.63;;;;;;;;;;4977043;28;20050;-81
2023/06/20 03:38:12;;;;;;;15.70;14.35;;;;;;;;;;4993126;28;20049;-81
2023/06/20 03:40:38;;;;;;;16.05;14.77;;;;;;;;;;4992666;28;20045;-82
2023/06/20 03:43:04;;;;;;;17.60;16.00;;;;;;;;;;4991670;28;20049;-81
2023/06/20 03:45:30;;;;;;;16.25;15.05;;;;;;;;;;4996294;28;20085;-81
2023/06/20 03:47:56;;;;;;;16.52;15.18;;;;;;;;;;5012678;28;20566;-80
2023/06/20 03:50:22;;;;;;;16.13;14.80;;;;;;;;;;5012482;28;20470;-81
2023/06/20 03:52:48;;;;;;;16.67;15.18;;;;;;;;;;4996854;28;20421;-81
2023/06/20 03:55:14;;;;;;;15.50;14.30;;;;;;;;;;5012693;28;20057;-81
2023/06/20 03:57:40;;;;;;;15.77;14.40;;;;;;;;;;5012514;28;20045;-81
2023/06/20 04:00:11;;;;;;;15.85;14.55;;;;;;;;;;4996324;28;20137;-81
2023/06/20 04:02:41;;;;;;;16.55;15.07;;;;;;;;;;4996409;28;20057;-82
2023/06/20 04:05:08;;;;;;;16.08;14.65;;;;;;;;;;5012706;28;20049;-81
2023/06/20 04:07:35;;;;;;;15.93;14.57;;;;;;;;;;5012438;28;20133;-81
2023/06/20 04:10:01;;;;;;;14.38;13.38;;;;;;;;;;4996072;28;20049;-81
2023/06/20 04:12:27;;;;;;;15.15;13.85;;;;;;;;;;5012010;28;20116;-81
2023/06/20 04:14:53;;;;;;;17.92;13.82;;;;;;;;;;4996193;28;20475;-81
2023/06/20 04:17:20;;;;;;;16.40;14.80;;;;;;;;;;4995714;28;20498;-82
2023/06/20 04:19:46;;;;;;;16.23;14.70;;;;;;;;;;5013347;28;20135;-81
2023/06/20 04:22:12;;;;;;;15.07;13.95;;;;;;;;;;4996147;28;20046;-82
2023/06/20 04:24:38;;;;;;;16.30;14.90;;;;;;;;;;5014465;28;20153;-81
2023/06/20 04:27:05;;;;;;;16.85;15.40;;;;;;;;;;5016045;28;20054;-82
2023/06/20 04:29:31;;;;;;;17.30;15.63;;;;;;;;;;5015538;28;20038;-81
2023/06/20 04:31:57;;;;;;;16.85;15.25;;;;;;;;;;5015729;28;20061;-81
2023/06/20 04:34:24;;;;;;;17.17;15.57;;;;;;;;;;4999476;28;20061;-82
2023/06/20 04:36:51;;;;;;;17.17;15.70;;;;;;;;;;5015962;28;20474;-81
2023/06/20 04:39:17;;;;;;;15.90;14.35;;;;;;;;;;5015602;28;20484;-81
2023/06/20 04:41:43;;;;;;;17.35;15.48;;;;;;;;;;4998930;28;20132;-82
2023/06/20 04:44:09;;;;;;;17.20;15.73;;;;;;;;;;4999282;28;20050;-82
2023/06/20 04:46:35;;;;;;;18.08;16.55;;;;;;;;;;5015730;28;20045;-82
2023/06/20 04:49:01;;;;;;;17.98;16.17;;;;;;;;;;5016399;28;20080;-82
2023/06/20 04:51:27;;;;;;;17.02;15.55;;;;;;;;;;4999172;28;20095;-82
2023/06/20 04:53:54;;;;;;;17.92;16.33;;;;;;;;;;5015460;28;20050;-82
2023/06/20 04:56:22;;;;;;;17.08;15.57;;;;;;;;;;5015974;28;20049;-82
2023/06/20 04:58:48;;;;;;;16.58;14.98;;;;;;;;;;5015502;28;20085;-81
2023/06/20 05:01:14;;;;;;;17.63;16.02;;;;;;;;;;5016615;28;20053;-82
2023/06/20 05:03:42;;;;;;;17.73;15.95;;;;;;;;;;5015532;28;20410;-83
2023/06/20 05:06:08;;;;;;;17.67;16.05;;;;;;;;;;5015632;28;20442;-82
2023/06/20 05:08:34;;;;;;;16.75;15.05;;;;;;;;;;5014898;28;20482;-83
2023/06/20 05:11:00;;;;;;;16.13;14.82;;;;;;;;;;5014502;28;20050;-83
2023/06/20 05:13:26;;;;;;;15.85;14.55;;;;;;;;;;5015114;28;20056;-83
2023/06/20 05:15:53;;;;;;;14.85;13.55;;;;;;;;;;5015047;28;20107;-83
2023/06/20 05:18:19;;;;;;;15.10;13.80;;;;;;;;;;4999735;28;20046;-82
2023/06/20 05:20:45;;;;;;;13.95;12.82;;;;;;;;;;5016119;28;20049;-83
2023/06/20 05:23:11;;;;;;;13.73;12.73;;;;;;;;;;4998848;28;20065;-83
2023/06/20 05:25:37;;;;;;;13.88;12.55;;;;;;;;;;4998571;28;20042;-78
2023/06/20 05:28:03;;;;;;;13.50;12.38;;;;;;;;;;4998861;28;20092;-78
2023/06/20 05:30:29;;;;;;;14.18;13.07;;;;;;;;;;5015019;28;20133;-78
2023/06/20 05:32:55;;;;;;;13.70;12.57;;;;;;;;;;5014945;28;20054;-78
2023/06/20 05:35:22;;;;;;;13.82;12.57;;;;;;;;;;5014228;28;20054;-78
2023/06/20 05:37:49;;;;;;;12.85;11.18;;;;;;;;;;5014775;28;20050;-78
2023/06/20 05:40:15;;;;;;;13.80;12.57;;;;;;;;;;5014867;28;20054;-78
2023/06/20 05:42:42;;;;;;;14.05;12.88;;;;;;;;;;5015047;28;20042;-78
2023/06/20 05:45:08;;;;;;;14.18;12.98;;;;;;;;;;5014641;28;20038;-78
2023/06/20 05:47:34;;;;;;;14.38;13.27;;;;;;;;;;5014640;28;20058;-77
2023/06/20 05:50:00;;;;;;;13.95;12.73;;;;;;;;;;5015710;28;20093;-78
2023/06/20 05:52:27;;;;;;;12.95;11.98;;;;;;;;;;5014610;28;20104;-78
2023/06/20 05:54:53;;;;;;;14.02;12.90;;;;;;;;;;5014750;28;20049;-78
2023/06/20 05:57:20;;;;;;;14.80;13.57;;;;;;;;;;5015386;28;20096;-78
2023/06/20 05:59:46;;;;;;;14.07;12.68;;;;;;;;;;4997645;28;20048;-78
2023/06/20 06:02:13;;;;;;;15.80;14.40;;;;;;;;;;5014159;28;20438;-78
2023/06/20 06:04:43;;;;;;;12.88;11.85;;;;;;;;;;5014944;28;20057;-78
2023/06/20 06:07:09;;;;;;;14.55;13.38;;;;;;;;;;5013892;28;20092;-79
2023/06/20 06:09:36;;;;;;;14.07;12.90;;;;;;;;;;5014864;28;20184;-78
2023/06/20 06:12:02;;;;;;;14.30;12.90;;;;;;;;;;5014960;28;20049;-78
2023/06/20 06:14:28;;;;;;;11.10;10.15;;;;;;;;;;5013932;28;20065;-77
2023/06/20 06:16:55;;;;;;;12.52;11.50;;;;;;;;;;5015058;28;20052;-78
2023/06/20 06:19:21;;;;;;;12.55;11.55;;;;;;;;;;5015018;28;20068;-78
2023/06/20 06:21:47;;;;;;;13.50;12.35;;;;;;;;;;4997708;28;20042;-78
2023/06/20 06:24:14;;;;;;;12.90;11.77;;;;;;;;;;5013783;28;20053;-78
2023/06/20 06:26:40;;;;;;;14.52;13.32;;;;;;;;;;5014898;28;20046;-78
2023/06/20 06:29:06;;;;;;;12.05;11.15;;;;;;;;;;5013325;28;20104;-78
2023/06/20 06:31:37;;;;;;;12.90;11.90;;;;;;;;;;5013245;28;20058;-77
2023/06/20 06:34:03;;;;;;;14.18;12.82;;;;;;;;;;5013863;28;20128;-78
2023/06/20 06:36:33;;;;;;;13.30;11.80;;;;;;;;;;5013584;28;20084;-79
2023/06/20 06:39:00;;;;;;;13.27;11.95;;;;;;;;;;5014631;28;20046;-78
2023/06/20 06:41:26;;;;;;;13.85;12.68;;;;;;;;;;5013226;28;20049;-78
2023/06/20 06:43:53;;;;;;;14.15;13.15;;;;;;;;;;5014011;28;20057;-78
2023/06/20 06:46:19;;;;;;;11.00;10.10;;;;;;;;;;5013416;28;20057;-78
2023/06/20 06:48:47;;;;;;;14.50;13.32;;;;;;;;;;5013526;28;20046;-78
2023/06/20 06:51:13;;;;;;;13.88;12.90;;;;;;;;;;5014512;28;20096;-78
2023/06/20 06:53:39;;;;;;;14.63;13.43;;;;;;;;;;5014180;28;20054;-78
2023/06/20 06:56:05;;;;;;;13.85;12.88;;;;;;;;;;4997413;28;20390;-78
2023/06/20 06:58:31;;;;;;;14.70;13.40;;;;;;;;;;5014214;28;20049;-78
2023/06/20 07:00:57;;;;;;;13.70;12.52;;;;;;;;;;5013357;28;20096;-78
2023/06/20 07:03:24;;;;;;;14.00;13.10;;;;;;;;;;5014271;28;20057;-78
2023/06/20 07:05:50;;;;;;;13.73;12.63;;;;;;;;;;5014271;28;20072;-78
2023/06/20 07:08:16;;;;;;;14.27;12.98;;;;;;;;;;5012925;28;20068;-78
2023/06/20 07:10:42;;;;;;;15.23;13.90;;;;;;;;;;5013701;28;20048;-78
2023/06/20 07:13:08;;;;;;;14.27;13.27;;;;;;;;;;5012914;28;20060;-78
2023/06/20 07:15:34;;;;;;;13.93;12.85;;;;;;;;;;5013011;28;20474;-78
2023/06/20 07:18:00;;;;;;;14.88;13.45;;;;;;;;;;5012785;28;20041;-78
2023/06/20 07:20:26;;;;;;;15.05;13.85;;;;;;;;;;5012845;28;20046;-78
2023/06/20 07:22:52;;;;;;;13.98;12.98;;;;;;;;;;5013984;28;20054;-77
2023/06/20 07:25:19;;;;;;;15.43;14.15;;;;;;;;;;5012848;28;20107;-77
2023/06/20 07:27:45;;;;;;;14.48;13.45;;;;;;;;;;4996252;28;20057;-77
2023/06/20 07:30:11;;;;;;;14.80;13.60;;;;;;;;;;5012889;28;20065;-78
2023/06/20 07:32:37;;;;;;;13.73;12.63;;;;;;;;;;5012435;28;20141;-78
2023/06/20 07:35:04;;;;;;;13.63;12.55;;;;;;;;;;5012800;28;20060;-78
2023/06/20 07:37:30;;;;;;;15.75;14.45;;;;;;;;;;5012517;28;20509;-78
2023/06/20 07:39:56;;;;;;;15.52;14.43;;;;;;;;;;5012459;28;20372;-78
2023/06/20 07:42:22;;;;;;;15.85;14.75;;;;;;;;;;5012486;28;20050;-78
2023/06/20 07:44:48;;;;;;;14.23;13.23;;;;;;;;;;5013005;28;20128;-78
2023/06/20 07:47:14;;;;;;;15.10;13.80;;;;;;;;;;4996350;28;20060;-77
2023/06/20 07:49:40;;;;;;;15.10;13.73;;;;;;;;;;5012683;28;20045;-77
2023/06/20 07:52:06;;;;;;;15.23;14.02;;;;;;;;;;5012675;28;20137;-78
2023/06/20 07:54:32;;;;;;;14.93;13.90;;;;;;;;;;5013531;28;20487;-83
2023/06/20 07:56:58;;;;;;;15.20;14.07;;;;;;;;;;4996223;28;20085;-83
2023/06/20 07:59:24;;;;;;;14.40;13.30;;;;;;;;;;4997917;28;20038;-82
2023/06/20 08:01:50;;;;;;;15.25;13.90;;;;;;;;;;5000263;28;20046;-82
2023/06/20 08:04:17;;;;;;;15.60;14.43;;;;;;;;;;5016548;28;20042;-82
2023/06/20 08:06:43;;;;;;;14.27;13.25;;;;;;;;;;5016534;28;20131;-82
2023/06/20 08:09:09;;;;;;;14.93;13.82;;;;;;;;;;5016485;28;20080;-82
2023/06/20 08:11:35;;;;;;;14.65;13.55;;;;;;;;;;5017043;28;20100;-82
2023/06/20 08:14:01;;;;;;;13.98;13.00;;;;;;;;;;5000278;28;20103;-82
2023/06/20 08:16:27;;;;;;;14.55;13.40;;;;;;;;;;5016381;28;20053;-82
2023/06/20 08:18:53;;;;;;;14.88;13.82;;;;;;;;;;5016254;28;20094;-82
2023/06/20 08:21:19;;;;;;;13.90;12.88;;;;;;;;;;4999887;28;20181;-82
2023/06/20 08:23:45;;;;;;;13.40;12.40;;;;;;;;;;5015964;28;20053;-82
2023/06/20 08:26:11;;;;;;;11.57;10.88;;;;;;;;;;5016192;28;20056;-83
2023/06/20 08:28:38;;;;;;;13.00;12.07;;;;;;;;;;5016142;28;20108;-83
2023/06/20 08:31:04;;;;;;;12.40;11.45;;;;;;;;;;4983566;28;20069;-83
2023/06/20 08:33:30;;;;;;;12.07;11.20;;;;;;;;;;5016154;28;20104;-83
2023/06/20 08:35:57;;;;;;;11.30;10.55;;;;;;;;;;5015893;28;20438;-83
2023/06/20 08:38:23;;;;;;;10.45;9.68;;;;;;;;;;4999623;28;20069;-83
2023/06/20 08:40:50;;;;;;;10.65;9.95;;;;;;;;;;4983170;28;20100;-83
2023/06/20 08:43:17;;;;;;;10.25;9.50;;;;;;;;;;4983038;28;20058;-83
2023/06/20 08:45:43;;;;;;;11.20;10.20;;;;;;;;;;5016640;28;20056;-83
2023/06/20 08:48:09;;;;;;;9.90;9.30;;;;;;;;;;4983581;28;20053;-83
2023/06/20 08:50:39;;;;;;;9.43;8.93;;;;;;;;;;4999553;28;20065;-83
2023/06/20 08:53:06;;;;;;;8.45;8.05;;;;;;;;;;5015468;28;20461;-82
2023/06/20 08:55:33;;;;;;;8.20;7.70;;;;;;;;;;5015698;28;20105;-82
2023/06/20 08:57:59;;;;;;;8.70;8.10;;;;;;;;;;5016490;28;20053;-82
2023/06/20 09:00:25;;;;;;;8.20;7.38;;;;;;;;;;5016557;28;20050;-82
2023/06/20 09:02:52;;;;;;;9.38;8.48;;;;;;;;;;4999194;28;20049;-82
2023/06/20 09:05:18;;;;;;;7.65;7.22;;;;;;;;;;4999141;28;20046;-82
2023/06/20 09:07:45;;;;;;;8.70;8.02;;;;;;;;;;5016856;28;20077;-82
2023/06/20 09:10:13;;;;;;;7.18;6.47;;;;;;;;;;5014308;28;20085;-82
2023/06/20 09:12:46;;;;;;;8.02;7.63;;;;;;;;;;4999078;28;20095;-82
2023/06/20 09:15:13;;;;;;;7.53;7.03;;;;;;;;;;5016341;28;20057;-82
2023/06/20 09:17:40;;;;;;;7.80;7.20;;;;;;;;;;5015020;28;20101;-82
2023/06/20 09:20:06;;;;;;;7.57;7.03;;;;;;;;;;5015009;28;20046;-82
2023/06/20 09:22:32;;;;;;;6.10;5.70;;;;;;;;;;4998992;28;20038;-82
2023/06/20 09:25:03;;;;;;;5.97;5.50;;;;;;;;;;5014960;28;20491;-83
2023/06/20 09:27:34;;;;;;;5.05;4.68;;;;;;;;;;5015885;28;20562;-82
2023/06/20 09:30:00;;;;;;;4.07;3.90;;;;;;;;;;4999063;28;20108;-82
2023/06/20 09:32:26;;;;;;;4.35;4.13;;;;;;;;;;5015942;28;20089;-82
2023/06/20 09:34:53;;;;;;;4.72;4.53;;;;;;;;;;5015912;28;20050;-83
2023/06/20 09:37:22;;;;;;;5.93;5.53;;;;;;;;;;5014742;28;20046;-83
2023/06/20 09:39:53;;;;;;;5.60;5.15;;;;;;;;;;4998546;28;20394;-83
2023/06/20 09:42:19;;;;;;;4.90;4.70;;;;;;;;;;5015586;28;20046;-83
2023/06/20 09:44:45;;;;;;;5.85;5.40;;;;;;;;;;4998474;28;20053;-83
2023/06/20 09:47:11;;;;;;;4.82;4.63;;;;;;;;;;4998628;28;20132;-83
2023/06/20 09:49:39;;;;;;;4.32;4.03;;;;;;;;;;5015791;28;20037;-83
2023/06/20 09:52:14;;;;;;;3.83;3.63;;;;;;;;;;4998079;28;20064;-84
2023/06/20 09:54:44;;;;;;;6.00;3.85;;;;;;;;;;5016051;28;20467;-83
2023/06/20 09:57:12;;;;;;;4.13;3.95;;;;;;;;;;5014593;28;20132;-84
2023/06/20 09:59:41;;;;;;;3.78;3.47;;;;;;;;;;4997737;28;20069;-86
2023/06/20 10:02:09;;;;;;;3.95;3.65;;;;;;;;;;5014354;28;20095;-86
2023/06/20 10:04:39;;;;;;;5.30;3.22;;;;;;;;;;5014554;28;20478;-86
2023/06/20 10:07:05;;;;;;;3.70;3.60;;;;;;;;;;4998179;28;20465;-86
2023/06/20 10:09:31;;;;;;;10.98;3.88;;;;;;;;;;4981855;28;20050;-86
2023/06/20 10:11:57;;;;;;;3.17;3.08;;;;;;;;;;4998103;28;20054;-86
2023/06/20 10:14:24;;;;;;;4.13;3.83;;;;;;;;;;5014502;28;20046;-86
2023/06/20 10:16:51;;;;;;;3.05;2.78;;;;;;;;;;4982010;28;20134;-85
2023/06/20 10:19:17;;;;;;;3.40;3.25;;;;;;;;;;4997787;28;20555;-85
2023/06/20 10:22:02;;;;;;;3.30;3.15;;;;;;;;;;5014331;28;20054;-86
2023/06/20 10:24:29;;;;;;;3.10;2.90;;;;;;;;;;4998407;28;20049;-83
2023/06/20 10:26:59;;;;;;;3.60;3.30;;;;;;;;;;5014922;28;20081;-83
2023/06/20 10:29:26;;;;;;;3.58;3.45;;;;;;;;;;5014654;28;20053;-84
2023/06/20 10:32:19;;;;;;;3.08;2.90;;;;;;;;;;5014931;28;20064;-83
2023/06/20 10:34:45;;;;;;;3.70;3.50;;;;;;;;;;4994943;28;20066;-83
2023/06/20 10:37:16;;;;;;;4.13;3.83;;;;;;;;;;5013792;28;20488;-84
2023/06/20 10:40:11;;;;;;;4.88;4.57;;;;;;;;;;5013459;28;20092;-84
2023/06/20 10:42:56;;;;;;;4.68;4.32;;;;;;;;;;4984187;28;20140;-84
2023/06/20 10:45:25;;;;;;;4.00;3.80;;;;;;;;;;4997050;28;20042;-84
2023/06/20 10:47:52;;;;;;;3.20;3.00;;;;;;;;;;4996625;28;20046;-84
2023/06/20 10:50:18;;;;;;;3.80;3.60;;;;;;;;;;5013405;28;20099;-85
2023/06/20 10:52:44;;;;;;;4.40;4.10;;;;;;;;;;4997048;28;20049;-85
2023/06/20 10:55:14;;;;;;;4.80;4.38;;;;;;;;;;4997142;28;20053;-84
2023/06/20 10:57:45;;;;;;;3.33;3.13;;;;;;;;;;4997295;28;20108;-85
2023/06/20 11:00:17;;;;;;;4.32;4.05;;;;;;;;;;5014246;28;20125;-85
2023/06/20 11:02:43;;;;;;;4.32;4.03;;;;;;;;;;4997924;28;20502;-85
2023/06/20 11:05:10;;;;;;;4.97;4.68;;;;;;;;;;4980764;28;20050;-85
2023/06/20 11:07:57;;;;;;;4.50;4.20;;;;;;;;;;5014641;28;20050;-85
2023/06/20 11:10:29;;;;;;;3.67;3.47;;;;;;;;;;5013819;28;20046;-84
2023/06/20 11:12:56;;;;;;;4.50;4.30;;;;;;;;;;4996160;28;20133;-84
2023/06/20 11:15:22;;;;;;;3.97;3.78;;;;;;;;;;5013119;28;20552;-84
2023/06/20 11:17:49;;;;;;;3.90;3.75;;;;;;;;;;4997440;28;20053;-86
2023/06/20 11:20:18;;;;;;;4.00;3.70;;;;;;;;;;4997131;28;20050;-84
2023/06/20 11:22:45;;;;;;;3.72;3.53;;;;;;;;;;4996628;28;20060;-85
2023/06/20 11:25:12;;;;;;;3.55;3.22;;;;;;;;;;5013012;28;20053;-85
2023/06/20 11:27:38;;;;;;;3.80;3.47;;;;;;;;;;4996815;28;20089;-86
2023/06/20 11:30:06;;;;;;;3.47;3.35;;;;;;;;;;4996501;28;20434;-85
2023/06/20 11:32:32;;;;;;;2.67;2.17;;;;;;;;;;5012550;28;20107;-83
2023/06/20 11:35:03;;;;;;;2.85;2.65;;;;;;;;;;5012027;28;20054;-84
2023/06/20 11:37:31;;;;;;;2.75;2.65;;;;;;;;;;5012886;28;20495;-87
2023/06/20 11:39:58;;;;;;;3.00;2.80;;;;;;;;;;4996494;28;20485;-89
2023/06/20 11:42:24;;;;;;;2.80;2.60;;;;;;;;;;5012815;28;20056;-88
2023/06/20 11:44:50;;;;;;;2.80;2.70;;;;;;;;;;4996719;28;20371;-86
2023/06/20 11:47:17;;;;;;;2.63;2.50;;;;;;;;;;4981145;28;20049;-88
2023/06/20 11:49:43;;;;;;;3.60;3.20;;;;;;;;;;5012343;28;20042;-86
2023/06/20 11:52:09;;;;;;;7.03;3.20;;;;;;;;;;5012918;28;20510;-87
2023/06/20 11:54:49;;;;;;;3.17;2.97;;;;;;;;;;4996337;28;20124;-88
2023/06/20 11:57:26;;;;;;;3.60;3.40;;;;;;;;;;4996547;28;20057;-88
2023/06/20 11:59:52;;;;;;;2.70;2.50;;;;;;;;;;5012744;28;20601;-87
2023/06/20 12:02:19;;;;;;;2.40;2.30;;;;;;;;;;5012757;28;20048;-85
2023/06/20 12:04:56;;;;;;;2.70;2.60;;;;;;;;;;5012848;28;20060;-85
2023/06/20 12:07:22;;;;;;;2.60;2.50;;;;;;;;;;5012937;28;20050;-86
2023/06/20 12:09:49;;;;;;;2.90;2.60;;;;;;;;;;4980349;28;20050;-85
2023/06/20 12:12:15;;;;;;;3.50;3.08;;;;;;;;;;4995969;28;20136;-82
2023/06/20 12:14:41;;;;;;;2.65;2.55;;;;;;;;;;4996764;28;20104;-83
2023/06/20 12:17:07;;;;;;;3.00;2.40;;;;;;;;;;5012213;28;20085;-85
2023/06/20 12:19:33;;;;;;;3.40;2.30;;;;;;;;;;5012075;28;20068;-84
2023/06/20 12:21:59;;;;;;;3.20;2.83;;;;;;;;;;5012073;28;20053;-85
2023/06/20 12:24:30;;;;;;;2.88;2.55;;;;;;;;;;4996378;28;20100;-85
2023/06/20 12:26:56;;;;;;;3.53;3.00;;;;;;;;;;5012775;28;20073;-83
2023/06/20 12:29:23;;;;;;;2.17;2.08;;;;;;;;;;5012323;28;20042;-84
2023/06/20 12:31:49;;;;;;;2.45;2.25;;;;;;;;;;4996077;28;20415;-83
2023/06/20 12:34:15;;;;;;;2.10;1.90;;;;;;;;;;5012341;28;20057;-85
2023/06/20 12:36:41;;;;;;;2.58;2.28;;;;;;;;;;5012097;28;20056;-84
2023/06/20 12:39:08;;;;;;;1.90;1.80;;;;;;;;;;5011622;28;20487;-85
2023/06/20 12:41:35;;;;;;;3.03;2.78;;;;;;;;;;4979285;28;20048;-85
2023/06/20 12:44:04;;;;;;;3.33;2.30;;;;;;;;;;5011602;28;20133;-86
2023/06/20 12:46:30;;;;;;;2.22;2.13;;;;;;;;;;5014809;28;20050;-85
2023/06/20 12:48:56;;;;;;;4.88;2.50;;;;;;;;;;4999360;28;20049;-86
2023/06/20 12:51:23;;;;;;;2.58;2.47;;;;;;;;;;5015729;28;20046;-85
2023/06/20 12:53:50;;;;;;;2.55;2.45;;;;;;;;;;5016740;28;20061;-85
2023/06/20 12:56:17;;;;;;;2.33;2.13;;;;;;;;;;4988339;28;20046;-84
2023/06/20 12:58:43;;;;;;;1.90;1.80;;;;;;;;;;4995868;28;20050;-83
2023/06/20 13:01:09;;;;;;;1.80;1.70;;;;;;;;;;4995858;28;20053;-82
2023/06/20 13:03:35;;;;;;;1.83;1.70;;;;;;;;;;4979981;28;20054;-84
2023/06/20 13:06:02;;;;;;;1.92;1.70;;;;;;;;;;4999072;28;20069;-83
2023/06/20 13:08:28;;;;;;;1.80;1.70;;;;;;;;;;5015666;28;20593;-85
2023/06/20 13:10:54;;;;;;;1.52;1.42;;;;;;;;;;4999131;28;20050;-86
2023/06/20 13:13:20;;;;;;;1.90;1.80;;;;;;;;;;5015553;28;20048;-85
2023/06/20 13:15:46;;;;;;;3.28;1.80;;;;;;;;;;5002996;28;20099;-88
2023/06/20 13:18:13;;;;;;;1.60;1.50;;;;;;;;;;5017423;28;20072;-88
2023/06/20 13:20:39;;;;;;;1.67;1.58;;;;;;;;;;5015867;28;20054;-88
2023/06/20 13:23:07;;;;;;;2.05;1.95;;;;;;;;;;4999321;28;20053;-88
2023/06/20 13:25:33;;;;;;;2.00;1.90;;;;;;;;;;5016310;28;20390;-89
2023/06/20 13:28:00;;;;;;;1.83;1.65;;;;;;;;;;5015533;28;20046;-85
2023/06/20 13:30:28;;;;;;;1.80;1.70;;;;;;;;;;5000023;28;20052;-87
2023/06/20 13:32:55;;;;;;;2.13;1.77;;;;;;;;;;4998759;28;20108;-86
2023/06/20 13:35:22;;;;;;;1.60;1.50;;;;;;;;;;5015629;28;20045;-87
2023/06/20 13:37:49;;;;;;;1.60;1.38;;;;;;;;;;4998942;28;20107;-89
2023/06/20 13:40:16;;;;;;;2.08;1.80;;;;;;;;;;5014952;28;20133;-88
2023/06/20 13:42:44;;;;;;;2.00;1.90;;;;;;;;;;4997977;28;20133;-87
2023/06/20 13:45:14;;;;;;;1.80;1.50;;;;;;;;;;4998616;28;20053;-86
2023/06/20 13:47:40;;;;;;;1.30;1.20;;;;;;;;;;5015461;28;20068;-87
2023/06/20 13:50:07;;;;;;;1.83;1.20;;;;;;;;;;5014916;28;20137;-88
2023/06/20 13:52:34;;;;;;;1.50;1.40;;;;;;;;;;5015615;28;20068;-84
2023/06/20 13:55:01;;;;;;;2.35;1.58;;;;;;;;;;4998382;28;20065;-86
2023/06/20 13:57:29;;;;;;;2.05;1.48;;;;;;;;;;4998209;28;20136;-88
2023/06/20 14:00:13;;;;;;;2.35;1.40;;;;;;;;;;4998086;28;20127;-88
2023/06/20 14:02:40;;;;;;;1.40;1.30;;;;;;;;;;4997999;28;20045;-85
2023/06/20 14:05:06;;;;;;;2.00;1.90;;;;;;;;;;4998231;28;20084;-87
2023/06/20 14:07:34;;;;;;;2.45;1.27;;;;;;;;;;4998705;28;20050;-87
2023/06/20 14:10:00;;;;;;;2.35;1.60;;;;;;;;;;4998064;28;20093;-87
2023/06/20 14:12:26;;;;;;;1.92;1.83;;;;;;;;;;4997998;28;20148;-87
2023/06/20 14:14:53;;;;;;;1.65;1.27;;;;;;;;;;4998260;28;20046;-86
2023/06/20 14:17:19;;;;;;;1.33;1.23;;;;;;;;;;5013922;28;20522;-87
2023/06/20 14:19:45;;;;;;;1.80;1.33;;;;;;;;;;5014014;28;20041;-87
2023/06/20 14:22:12;;;;;;;1.48;1.10;;;;;;;;;;4998188;28;20042;-87
2023/06/20 14:24:38;;;;;;;2.05;1.50;;;;;;;;;;4998580;28;20140;-87
2023/06/20 14:27:04;;;;;;;2.20;1.40;;;;;;;;;;4997975;28;20137;-87
2023/06/20 14:29:31;;;;;;;2.40;1.50;;;;;;;;;;5014181;28;20095;-87